sensor_id;sensor_type;location;lat;lon;timestamp;P1;durP1;ratioP1;P2;durP2;ratioP2
10637;SDS011;47007;49.252;8.904;2022-12-18T00:00:26;32.33;;;21.73;;
10637;SDS011;47007;49.252;8.904;2022-12-18T00:02:17;27.33;;;19.80;;
10637;SDS011;47007;49.252;8.904;2022-12-18T00:02:59;27.70;;;19.67;;
10637;SDS011;47007;49.252;8.904;2022-12-18T00:03:41;27.53;;;20.20;;
10637;SDS011;47007;49.252;8.904;2022-12-18T00:04:23;28.93;;;20.80;;
10637;SDS011;47007;49.252;8.904;2022-12-18T00:05:06;31.30;;;21.50;;
10637;SDS011;47007;49.252;8.904;2022-12-18T00:05:49;29.70;;;21.70;;
10637;SDS011;47007;49.252;8.904;2022-12-18T00:06:32;27.13;;;20.77;;
10637;SDS011;47007;49.252;8.904;2022-12-18T00:07:14;29.40;;;21.30;;
10637;SDS011;47007;49.252;8.904;2022-12-18T00:07:55;27.60;;;20.80;;
10637;SDS011;47007;49.252;8.904;2022-12-18T00:08:37;30.63;;;21.63;;
10637;SDS011;47007;49.252;8.904;2022-12-18T00:09:19;30.43;;;22.40;;
10637;SDS011;47007;49.252;8.904;2022-12-18T00:10:05;30.03;;;21.80;;
10637;SDS011;47007;49.252;8.904;2022-12-18T00:10:47;31.63;;;22.80;;
10637;SDS011;47007;49.252;8.904;2022-12-18T00:11:29;30.27;;;21.73;;
10637;SDS011;47007;49.252;8.904;2022-12-18T00:12:11;31.33;;;23.07;;
10637;SDS011;47007;49.252;8.904;2022-12-18T00:12:56;33.23;;;24.07;;
10637;SDS011;47007;49.252;8.904;2022-12-18T00:13:37;33.00;;;24.00;;
10637;SDS011;47007;49.252;8.904;2022-12-18T00:14:20;36.40;;;25.27;;
10637;SDS011;47007;49.252;8.904;2022-12-18T00:15:01;35.30;;;25.77;;
10637;SDS011;47007;49.252;8.904;2022-12-18T00:15:43;33.67;;;23.90;;
10637;SDS011;47007;49.252;8.904;2022-12-18T00:16:25;32.40;;;23.27;;
10637;SDS011;47007;49.252;8.904;2022-12-18T00:17:08;29.70;;;21.57;;
10637;SDS011;47007;49.252;8.904;2022-12-18T00:17:50;31.37;;;21.43;;
10637;SDS011;47007;49.252;8.904;2022-12-18T00:18:32;33.87;;;22.40;;
10637;SDS011;47007;49.252;8.904;2022-12-18T00:19:14;31.93;;;23.13;;
10637;SDS011;47007;49.252;8.904;2022-12-18T00:19:56;32.60;;;24.27;;
10637;SDS011;47007;49.252;8.904;2022-12-18T00:20:39;31.37;;;23.50;;
10637;SDS011;47007;49.252;8.904;2022-12-18T00:21:21;29.53;;;21.53;;
10637;SDS011;47007;49.252;8.904;2022-12-18T00:22:03;33.00;;;22.20;;
10637;SDS011;47007;49.252;8.904;2022-12-18T00:22:44;30.40;;;22.00;;
10637;SDS011;47007;49.252;8.904;2022-12-18T00:23:26;30.50;;;22.07;;
10637;SDS011;47007;49.252;8.904;2022-12-18T00:24:09;31.53;;;23.07;;
10637;SDS011;47007;49.252;8.904;2022-12-18T00:24:51;34.57;;;23.40;;
10637;SDS011;47007;49.252;8.904;2022-12-18T00:25:33;34.60;;;24.00;;
10637;SDS011;47007;49.252;8.904;2022-12-18T00:26:23;33.50;;;23.80;;
10637;SDS011;47007;49.252;8.904;2022-12-18T00:27:12;32.83;;;22.40;;
10637;SDS011;47007;49.252;8.904;2022-12-18T00:27:54;32.93;;;23.87;;
10637;SDS011;47007;49.252;8.904;2022-12-18T00:28:36;33.53;;;23.80;;
10637;SDS011;47007;49.252;8.904;2022-12-18T00:29:18;29.73;;;21.97;;
10637;SDS011;47007;49.252;8.904;2022-12-18T00:30:00;32.20;;;23.67;;
10637;SDS011;47007;49.252;8.904;2022-12-18T00:30:42;29.10;;;22.33;;
10637;SDS011;47007;49.252;8.904;2022-12-18T00:31:23;29.93;;;22.03;;
10637;SDS011;47007;49.252;8.904;2022-12-18T00:32:07;30.87;;;22.43;;
10637;SDS011;47007;49.252;8.904;2022-12-18T00:32:48;30.97;;;21.90;;
10637;SDS011;47007;49.252;8.904;2022-12-18T00:33:30;31.50;;;22.83;;
10637;SDS011;47007;49.252;8.904;2022-12-18T00:34:12;29.33;;;20.87;;
10637;SDS011;47007;49.252;8.904;2022-12-18T00:34:57;28.20;;;20.33;;
10637;SDS011;47007;49.252;8.904;2022-12-18T00:35:38;29.73;;;22.03;;
10637;SDS011;47007;49.252;8.904;2022-12-18T00:36:21;33.83;;;24.30;;
10637;SDS011;47007;49.252;8.904;2022-12-18T00:37:06;31.27;;;22.60;;
10637;SDS011;47007;49.252;8.904;2022-12-18T00:37:47;32.37;;;23.50;;
10637;SDS011;47007;49.252;8.904;2022-12-18T00:38:29;30.43;;;21.20;;
10637;SDS011;47007;49.252;8.904;2022-12-18T00:39:11;31.13;;;22.07;;
10637;SDS011;47007;49.252;8.904;2022-12-18T00:39:53;29.50;;;21.33;;
10637;SDS011;47007;49.252;8.904;2022-12-18T00:40:35;33.97;;;23.17;;
10637;SDS011;47007;49.252;8.904;2022-12-18T00:41:17;31.40;;;22.47;;
10637;SDS011;47007;49.252;8.904;2022-12-18T00:42:19;31.07;;;22.20;;
10637;SDS011;47007;49.252;8.904;2022-12-18T00:43:20;30.53;;;22.00;;
10637;SDS011;47007;49.252;8.904;2022-12-18T00:44:02;33.73;;;22.67;;
10637;SDS011;47007;49.252;8.904;2022-12-18T00:44:44;32.53;;;23.23;;
10637;SDS011;47007;49.252;8.904;2022-12-18T00:45:29;36.53;;;24.80;;
10637;SDS011;47007;49.252;8.904;2022-12-18T00:46:12;39.50;;;27.80;;
10637;SDS011;47007;49.252;8.904;2022-12-18T00:46:54;33.67;;;24.20;;
10637;SDS011;47007;49.252;8.904;2022-12-18T00:47:35;34.20;;;24.90;;
10637;SDS011;47007;49.252;8.904;2022-12-18T00:48:17;34.13;;;23.10;;
10637;SDS011;47007;49.252;8.904;2022-12-18T00:48:59;33.27;;;25.03;;
10637;SDS011;47007;49.252;8.904;2022-12-18T00:49:40;34.73;;;24.53;;
10637;SDS011;47007;49.252;8.904;2022-12-18T00:50:23;33.53;;;23.80;;
10637;SDS011;47007;49.252;8.904;2022-12-18T00:51:05;32.33;;;23.37;;
10637;SDS011;47007;49.252;8.904;2022-12-18T00:51:48;33.80;;;23.80;;
10637;SDS011;47007;49.252;8.904;2022-12-18T00:52:29;35.17;;;24.63;;
10637;SDS011;47007;49.252;8.904;2022-12-18T00:53:11;33.93;;;23.87;;
10637;SDS011;47007;49.252;8.904;2022-12-18T00:53:53;33.20;;;24.23;;
10637;SDS011;47007;49.252;8.904;2022-12-18T00:54:35;33.33;;;23.63;;
10637;SDS011;47007;49.252;8.904;2022-12-18T00:55:17;37.53;;;25.57;;
10637;SDS011;47007;49.252;8.904;2022-12-18T00:56:00;37.57;;;26.17;;
10637;SDS011;47007;49.252;8.904;2022-12-18T00:56:42;38.30;;;25.93;;
10637;SDS011;47007;49.252;8.904;2022-12-18T00:57:31;38.47;;;26.10;;
10637;SDS011;47007;49.252;8.904;2022-12-18T00:58:13;41.10;;;26.90;;
10637;SDS011;47007;49.252;8.904;2022-12-18T00:58:56;37.97;;;25.60;;
10637;SDS011;47007;49.252;8.904;2022-12-18T00:59:38;37.10;;;24.77;;
10637;SDS011;47007;49.252;8.904;2022-12-18T01:00:20;33.83;;;23.53;;
10637;SDS011;47007;49.252;8.904;2022-12-18T01:01:03;36.93;;;26.43;;
10637;SDS011;47007;49.252;8.904;2022-12-18T01:01:48;35.93;;;24.57;;
10637;SDS011;47007;49.252;8.904;2022-12-18T01:02:30;36.57;;;24.80;;
10637;SDS011;47007;49.252;8.904;2022-12-18T01:03:12;40.67;;;25.53;;
10637;SDS011;47007;49.252;8.904;2022-12-18T01:03:58;35.60;;;24.23;;
10637;SDS011;47007;49.252;8.904;2022-12-18T01:04:41;33.27;;;23.67;;
10637;SDS011;47007;49.252;8.904;2022-12-18T01:05:22;32.73;;;21.93;;
10637;SDS011;47007;49.252;8.904;2022-12-18T01:06:06;32.70;;;22.10;;
10637;SDS011;47007;49.252;8.904;2022-12-18T01:06:48;32.67;;;20.93;;
10637;SDS011;47007;49.252;8.904;2022-12-18T01:07:30;29.33;;;20.90;;
10637;SDS011;47007;49.252;8.904;2022-12-18T01:08:12;45.03;;;29.40;;
10637;SDS011;47007;49.252;8.904;2022-12-18T01:08:55;46.57;;;32.73;;
10637;SDS011;47007;49.252;8.904;2022-12-18T01:09:37;44.47;;;30.00;;
10637;SDS011;47007;49.252;8.904;2022-12-18T01:10:19;36.50;;;24.63;;
10637;SDS011;47007;49.252;8.904;2022-12-18T01:11:06;39.63;;;27.27;;
10637;SDS011;47007;49.252;8.904;2022-12-18T01:11:56;35.17;;;24.03;;
10637;SDS011;47007;49.252;8.904;2022-12-18T01:12:38;35.63;;;24.50;;
10637;SDS011;47007;49.252;8.904;2022-12-18T01:13:20;35.80;;;24.00;;
10637;SDS011;47007;49.252;8.904;2022-12-18T01:14:04;31.80;;;22.90;;
10637;SDS011;47007;49.252;8.904;2022-12-18T01:14:46;36.40;;;24.50;;
10637;SDS011;47007;49.252;8.904;2022-12-18T01:15:28;35.60;;;25.40;;
10637;SDS011;47007;49.252;8.904;2022-12-18T01:16:13;37.40;;;23.67;;
10637;SDS011;47007;49.252;8.904;2022-12-18T01:16:56;36.03;;;24.27;;
10637;SDS011;47007;49.252;8.904;2022-12-18T01:17:37;35.33;;;24.83;;
10637;SDS011;47007;49.252;8.904;2022-12-18T01:18:19;34.13;;;23.63;;
10637;SDS011;47007;49.252;8.904;2022-12-18T01:19:01;36.23;;;23.07;;
10637;SDS011;47007;49.252;8.904;2022-12-18T01:19:42;32.40;;;22.73;;
10637;SDS011;47007;49.252;8.904;2022-12-18T01:20:24;31.37;;;23.17;;
10637;SDS011;47007;49.252;8.904;2022-12-18T01:21:07;33.13;;;23.10;;
10637;SDS011;47007;49.252;8.904;2022-12-18T01:21:51;32.60;;;21.97;;
10637;SDS011;47007;49.252;8.904;2022-12-18T01:22:32;33.90;;;24.73;;
10637;SDS011;47007;49.252;8.904;2022-12-18T01:23:14;37.30;;;25.60;;
10637;SDS011;47007;49.252;8.904;2022-12-18T01:23:58;37.83;;;26.00;;
10637;SDS011;47007;49.252;8.904;2022-12-18T01:24:40;36.47;;;25.10;;
10637;SDS011;47007;49.252;8.904;2022-12-18T01:25:21;37.17;;;23.70;;
10637;SDS011;47007;49.252;8.904;2022-12-18T01:26:08;34.47;;;25.03;;
10637;SDS011;47007;49.252;8.904;2022-12-18T01:26:54;41.57;;;28.37;;
10637;SDS011;47007;49.252;8.904;2022-12-18T01:27:38;37.07;;;25.33;;
10637;SDS011;47007;49.252;8.904;2022-12-18T01:28:19;35.17;;;25.43;;
10637;SDS011;47007;49.252;8.904;2022-12-18T01:29:01;36.70;;;24.80;;
10637;SDS011;47007;49.252;8.904;2022-12-18T01:29:43;34.00;;;22.97;;
10637;SDS011;47007;49.252;8.904;2022-12-18T01:30:24;32.60;;;23.50;;
10637;SDS011;47007;49.252;8.904;2022-12-18T01:31:40;32.13;;;22.20;;
10637;SDS011;47007;49.252;8.904;2022-12-18T01:32:16;33.53;;;23.10;;
10637;SDS011;47007;49.252;8.904;2022-12-18T01:32:57;35.33;;;23.80;;
10637;SDS011;47007;49.252;8.904;2022-12-18T01:33:39;35.43;;;22.77;;
10637;SDS011;47007;49.252;8.904;2022-12-18T01:34:22;33.93;;;23.40;;
10637;SDS011;47007;49.252;8.904;2022-12-18T01:35:05;35.37;;;24.60;;
10637;SDS011;47007;49.252;8.904;2022-12-18T01:35:48;35.80;;;24.77;;
10637;SDS011;47007;49.252;8.904;2022-12-18T01:36:31;40.80;;;28.10;;
10637;SDS011;47007;49.252;8.904;2022-12-18T01:37:14;35.00;;;25.03;;
10637;SDS011;47007;49.252;8.904;2022-12-18T01:37:59;40.13;;;26.43;;
10637;SDS011;47007;49.252;8.904;2022-12-18T01:38:42;38.37;;;26.43;;
10637;SDS011;47007;49.252;8.904;2022-12-18T01:39:23;34.67;;;25.13;;
10637;SDS011;47007;49.252;8.904;2022-12-18T01:40:05;34.40;;;23.50;;
10637;SDS011;47007;49.252;8.904;2022-12-18T01:40:47;35.67;;;25.40;;
10637;SDS011;47007;49.252;8.904;2022-12-18T01:41:30;37.57;;;25.93;;
10637;SDS011;47007;49.252;8.904;2022-12-18T01:42:32;34.40;;;23.73;;
10637;SDS011;47007;49.252;8.904;2022-12-18T01:43:17;33.93;;;24.83;;
10637;SDS011;47007;49.252;8.904;2022-12-18T01:43:59;31.67;;;22.40;;
10637;SDS011;47007;49.252;8.904;2022-12-18T01:44:58;33.23;;;23.60;;
10637;SDS011;47007;49.252;8.904;2022-12-18T01:45:46;35.63;;;24.13;;
10637;SDS011;47007;49.252;8.904;2022-12-18T01:46:28;36.50;;;24.00;;
10637;SDS011;47007;49.252;8.904;2022-12-18T01:47:12;30.93;;;22.20;;
10637;SDS011;47007;49.252;8.904;2022-12-18T01:48:04;34.27;;;23.53;;
10637;SDS011;47007;49.252;8.904;2022-12-18T01:48:49;31.87;;;21.63;;
10637;SDS011;47007;49.252;8.904;2022-12-18T01:49:38;31.07;;;22.43;;
10637;SDS011;47007;49.252;8.904;2022-12-18T01:50:23;37.10;;;25.87;;
10637;SDS011;47007;49.252;8.904;2022-12-18T01:51:12;38.03;;;24.87;;
10637;SDS011;47007;49.252;8.904;2022-12-18T01:51:54;36.77;;;24.40;;
10637;SDS011;47007;49.252;8.904;2022-12-18T01:52:36;32.73;;;22.90;;
10637;SDS011;47007;49.252;8.904;2022-12-18T01:53:23;36.03;;;23.20;;
10637;SDS011;47007;49.252;8.904;2022-12-18T01:54:05;33.97;;;23.60;;
10637;SDS011;47007;49.252;8.904;2022-12-18T01:54:47;33.30;;;23.23;;
10637;SDS011;47007;49.252;8.904;2022-12-18T01:55:36;36.97;;;24.30;;
10637;SDS011;47007;49.252;8.904;2022-12-18T01:56:29;36.23;;;22.67;;
10637;SDS011;47007;49.252;8.904;2022-12-18T01:57:11;32.57;;;22.20;;
10637;SDS011;47007;49.252;8.904;2022-12-18T01:57:53;48.73;;;30.97;;
10637;SDS011;47007;49.252;8.904;2022-12-18T01:59:32;39.30;;;26.20;;
10637;SDS011;47007;49.252;8.904;2022-12-18T02:00:17;40.23;;;26.67;;
10637;SDS011;47007;49.252;8.904;2022-12-18T02:01:00;33.83;;;23.73;;
10637;SDS011;47007;49.252;8.904;2022-12-18T02:01:42;36.23;;;24.40;;
10637;SDS011;47007;49.252;8.904;2022-12-18T02:02:24;34.03;;;24.27;;
10637;SDS011;47007;49.252;8.904;2022-12-18T02:03:09;32.27;;;22.77;;
10637;SDS011;47007;49.252;8.904;2022-12-18T02:03:51;30.23;;;21.10;;
10637;SDS011;47007;49.252;8.904;2022-12-18T02:04:33;30.53;;;21.13;;
10637;SDS011;47007;49.252;8.904;2022-12-18T02:05:16;30.23;;;22.47;;
10637;SDS011;47007;49.252;8.904;2022-12-18T02:06:07;32.17;;;22.80;;
10637;SDS011;47007;49.252;8.904;2022-12-18T02:08:16;29.83;;;20.43;;
10637;SDS011;47007;49.252;8.904;2022-12-18T02:10:45;30.20;;;21.00;;
10637;SDS011;47007;49.252;8.904;2022-12-18T02:11:44;32.40;;;22.90;;
10637;SDS011;47007;49.252;8.904;2022-12-18T02:12:52;31.63;;;21.80;;
10637;SDS011;47007;49.252;8.904;2022-12-18T02:14:39;32.10;;;21.13;;
10637;SDS011;47007;49.252;8.904;2022-12-18T02:15:31;31.67;;;21.63;;
10637;SDS011;47007;49.252;8.904;2022-12-18T02:17:04;36.80;;;25.63;;
10637;SDS011;47007;49.252;8.904;2022-12-18T02:17:58;35.90;;;23.50;;
10637;SDS011;47007;49.252;8.904;2022-12-18T02:18:50;30.50;;;21.93;;
10637;SDS011;47007;49.252;8.904;2022-12-18T02:20:27;34.40;;;22.87;;
10637;SDS011;47007;49.252;8.904;2022-12-18T02:21:25;31.07;;;21.23;;
10637;SDS011;47007;49.252;8.904;2022-12-18T02:23:31;30.93;;;21.37;;
10637;SDS011;47007;49.252;8.904;2022-12-18T02:26:05;30.93;;;20.90;;
10637;SDS011;47007;49.252;8.904;2022-12-18T02:26:50;30.07;;;19.90;;
10637;SDS011;47007;49.252;8.904;2022-12-18T02:27:39;30.83;;;21.47;;
10637;SDS011;47007;49.252;8.904;2022-12-18T02:28:30;32.83;;;21.73;;
10637;SDS011;47007;49.252;8.904;2022-12-18T02:29:24;30.10;;;21.10;;
10637;SDS011;47007;49.252;8.904;2022-12-18T02:30:10;30.50;;;20.27;;
10637;SDS011;47007;49.252;8.904;2022-12-18T02:30:53;31.30;;;21.57;;
10637;SDS011;47007;49.252;8.904;2022-12-18T02:31:40;29.63;;;20.17;;
10637;SDS011;47007;49.252;8.904;2022-12-18T02:32:27;30.93;;;21.10;;
10637;SDS011;47007;49.252;8.904;2022-12-18T02:33:12;30.50;;;21.67;;
10637;SDS011;47007;49.252;8.904;2022-12-18T02:33:58;28.97;;;20.10;;
10637;SDS011;47007;49.252;8.904;2022-12-18T02:34:48;28.60;;;20.43;;
10637;SDS011;47007;49.252;8.904;2022-12-18T02:35:32;27.97;;;19.77;;
10637;SDS011;47007;49.252;8.904;2022-12-18T02:36:16;28.47;;;19.10;;
10637;SDS011;47007;49.252;8.904;2022-12-18T02:37:02;30.13;;;20.80;;
10637;SDS011;47007;49.252;8.904;2022-12-18T02:37:48;28.90;;;19.83;;
10637;SDS011;47007;49.252;8.904;2022-12-18T02:38:30;30.43;;;21.67;;
10637;SDS011;47007;49.252;8.904;2022-12-18T02:39:19;27.63;;;19.20;;
10637;SDS011;47007;49.252;8.904;2022-12-18T02:40:12;28.87;;;20.97;;
10637;SDS011;47007;49.252;8.904;2022-12-18T02:40:57;26.57;;;19.77;;
10637;SDS011;47007;49.252;8.904;2022-12-18T02:41:40;27.60;;;20.37;;
10637;SDS011;47007;49.252;8.904;2022-12-18T02:42:22;28.57;;;20.93;;
10637;SDS011;47007;49.252;8.904;2022-12-18T02:43:09;29.57;;;21.60;;
10637;SDS011;47007;49.252;8.904;2022-12-18T02:43:57;30.47;;;21.67;;
10637;SDS011;47007;49.252;8.904;2022-12-18T02:44:47;32.40;;;22.07;;
10637;SDS011;47007;49.252;8.904;2022-12-18T02:45:34;29.17;;;20.93;;
10637;SDS011;47007;49.252;8.904;2022-12-18T02:46:27;30.03;;;21.00;;
10637;SDS011;47007;49.252;8.904;2022-12-18T02:47:14;29.03;;;20.03;;
10637;SDS011;47007;49.252;8.904;2022-12-18T02:48:02;29.30;;;19.97;;
10637;SDS011;47007;49.252;8.904;2022-12-18T02:48:45;29.33;;;20.97;;
10637;SDS011;47007;49.252;8.904;2022-12-18T02:50:34;28.30;;;20.60;;
10637;SDS011;47007;49.252;8.904;2022-12-18T02:51:29;26.37;;;19.00;;
10637;SDS011;47007;49.252;8.904;2022-12-18T02:53:24;28.80;;;18.77;;
10637;SDS011;47007;49.252;8.904;2022-12-18T02:54:23;32.93;;;21.77;;
10637;SDS011;47007;49.252;8.904;2022-12-18T02:56:30;29.40;;;20.20;;
10637;SDS011;47007;49.252;8.904;2022-12-18T02:59:58;35.93;;;22.23;;
10637;SDS011;47007;49.252;8.904;2022-12-18T03:01:59;65.57;;;33.03;;
10637;SDS011;47007;49.252;8.904;2022-12-18T03:03:05;73.43;;;33.63;;
10637;SDS011;47007;49.252;8.904;2022-12-18T03:03:59;54.03;;;29.67;;
10637;SDS011;47007;49.252;8.904;2022-12-18T03:05:09;42.43;;;26.47;;
10637;SDS011;47007;49.252;8.904;2022-12-18T03:06:04;35.93;;;22.90;;
10637;SDS011;47007;49.252;8.904;2022-12-18T03:06:59;33.60;;;22.30;;
10637;SDS011;47007;49.252;8.904;2022-12-18T03:08:54;31.23;;;21.23;;
10637;SDS011;47007;49.252;8.904;2022-12-18T03:09:42;34.53;;;22.57;;
10637;SDS011;47007;49.252;8.904;2022-12-18T03:10:29;33.33;;;22.73;;
10637;SDS011;47007;49.252;8.904;2022-12-18T03:11:14;31.13;;;21.97;;
10637;SDS011;47007;49.252;8.904;2022-12-18T03:11:58;30.57;;;20.80;;
10637;SDS011;47007;49.252;8.904;2022-12-18T03:13:31;28.93;;;19.30;;
10637;SDS011;47007;49.252;8.904;2022-12-18T03:14:18;32.53;;;21.27;;
10637;SDS011;47007;49.252;8.904;2022-12-18T03:15:09;33.17;;;23.23;;
10637;SDS011;47007;49.252;8.904;2022-12-18T03:15:59;32.87;;;22.20;;
10637;SDS011;47007;49.252;8.904;2022-12-18T03:16:43;38.70;;;25.57;;
10637;SDS011;47007;49.252;8.904;2022-12-18T03:17:28;43.77;;;27.43;;
10637;SDS011;47007;49.252;8.904;2022-12-18T03:18:15;40.90;;;27.37;;
10637;SDS011;47007;49.252;8.904;2022-12-18T03:19:19;42.43;;;27.63;;
10637;SDS011;47007;49.252;8.904;2022-12-18T03:20:07;47.63;;;29.20;;
10637;SDS011;47007;49.252;8.904;2022-12-18T03:20:54;45.87;;;29.10;;
10637;SDS011;47007;49.252;8.904;2022-12-18T03:21:42;44.33;;;29.10;;
10637;SDS011;47007;49.252;8.904;2022-12-18T03:22:29;44.83;;;29.63;;
10637;SDS011;47007;49.252;8.904;2022-12-18T03:23:20;44.63;;;29.53;;
10637;SDS011;47007;49.252;8.904;2022-12-18T03:24:07;43.03;;;27.97;;
10637;SDS011;47007;49.252;8.904;2022-12-18T03:24:51;43.43;;;28.83;;
10637;SDS011;47007;49.252;8.904;2022-12-18T03:25:34;45.97;;;30.40;;
10637;SDS011;47007;49.252;8.904;2022-12-18T03:26:22;44.90;;;29.47;;
10637;SDS011;47007;49.252;8.904;2022-12-18T03:27:11;43.27;;;29.03;;
10637;SDS011;47007;49.252;8.904;2022-12-18T03:27:58;39.80;;;26.53;;
10637;SDS011;47007;49.252;8.904;2022-12-18T03:28:46;46.23;;;30.50;;
10637;SDS011;47007;49.252;8.904;2022-12-18T03:29:34;45.00;;;29.20;;
10637;SDS011;47007;49.252;8.904;2022-12-18T03:30:40;40.50;;;26.20;;
10637;SDS011;47007;49.252;8.904;2022-12-18T03:31:25;42.27;;;28.37;;
10637;SDS011;47007;49.252;8.904;2022-12-18T03:32:12;43.63;;;29.03;;
10637;SDS011;47007;49.252;8.904;2022-12-18T03:33:04;45.20;;;29.00;;
10637;SDS011;47007;49.252;8.904;2022-12-18T03:33:53;40.30;;;26.73;;
10637;SDS011;47007;49.252;8.904;2022-12-18T03:34:48;40.60;;;26.43;;
10637;SDS011;47007;49.252;8.904;2022-12-18T03:35:37;38.87;;;26.83;;
10637;SDS011;47007;49.252;8.904;2022-12-18T03:36:21;40.87;;;26.60;;
10637;SDS011;47007;49.252;8.904;2022-12-18T03:37:05;42.13;;;28.83;;
10637;SDS011;47007;49.252;8.904;2022-12-18T03:37:49;37.07;;;25.90;;
10637;SDS011;47007;49.252;8.904;2022-12-18T03:38:31;37.87;;;27.37;;
10637;SDS011;47007;49.252;8.904;2022-12-18T03:39:13;45.17;;;29.30;;
10637;SDS011;47007;49.252;8.904;2022-12-18T03:40:01;41.70;;;28.60;;
10637;SDS011;47007;49.252;8.904;2022-12-18T03:42:06;40.67;;;26.43;;
10637;SDS011;47007;49.252;8.904;2022-12-18T03:43:09;41.13;;;28.70;;
10637;SDS011;47007;49.252;8.904;2022-12-18T03:44:13;44.07;;;28.40;;
10637;SDS011;47007;49.252;8.904;2022-12-18T03:46:15;41.33;;;28.07;;
10637;SDS011;47007;49.252;8.904;2022-12-18T03:48:11;46.33;;;29.83;;
10637;SDS011;47007;49.252;8.904;2022-12-18T03:49:01;50.53;;;30.17;;
10637;SDS011;47007;49.252;8.904;2022-12-18T03:50:38;44.60;;;29.63;;
10637;SDS011;47007;49.252;8.904;2022-12-18T03:52:18;41.20;;;28.50;;
10637;SDS011;47007;49.252;8.904;2022-12-18T03:53:13;40.37;;;27.13;;
10637;SDS011;47007;49.252;8.904;2022-12-18T03:54:04;39.90;;;26.80;;
10637;SDS011;47007;49.252;8.904;2022-12-18T03:54:54;39.00;;;26.97;;
10637;SDS011;47007;49.252;8.904;2022-12-18T03:55:39;38.67;;;26.73;;
10637;SDS011;47007;49.252;8.904;2022-12-18T03:56:22;40.87;;;27.70;;
10637;SDS011;47007;49.252;8.904;2022-12-18T03:57:18;36.00;;;25.80;;
10637;SDS011;47007;49.252;8.904;2022-12-18T03:58:05;39.03;;;26.33;;
10637;SDS011;47007;49.252;8.904;2022-12-18T03:59:02;39.90;;;25.97;;
10637;SDS011;47007;49.252;8.904;2022-12-18T03:59:49;40.90;;;28.97;;
10637;SDS011;47007;49.252;8.904;2022-12-18T04:00:38;41.90;;;29.40;;
10637;SDS011;47007;49.252;8.904;2022-12-18T04:01:25;39.47;;;27.80;;
10637;SDS011;47007;49.252;8.904;2022-12-18T04:02:14;42.47;;;29.00;;
10637;SDS011;47007;49.252;8.904;2022-12-18T04:02:59;40.13;;;27.37;;
10637;SDS011;47007;49.252;8.904;2022-12-18T04:03:49;37.53;;;27.10;;
10637;SDS011;47007;49.252;8.904;2022-12-18T04:04:34;38.43;;;26.77;;
10637;SDS011;47007;49.252;8.904;2022-12-18T04:05:19;42.37;;;28.07;;
10637;SDS011;47007;49.252;8.904;2022-12-18T04:06:03;42.83;;;30.33;;
10637;SDS011;47007;49.252;8.904;2022-12-18T04:06:47;39.90;;;29.10;;
10637;SDS011;47007;49.252;8.904;2022-12-18T04:07:32;45.63;;;31.87;;
10637;SDS011;47007;49.252;8.904;2022-12-18T04:08:15;52.57;;;35.50;;
10637;SDS011;47007;49.252;8.904;2022-12-18T04:09:04;50.40;;;34.03;;
10637;SDS011;47007;49.252;8.904;2022-12-18T04:09:52;45.70;;;31.20;;
10637;SDS011;47007;49.252;8.904;2022-12-18T04:10:38;44.87;;;31.57;;
10637;SDS011;47007;49.252;8.904;2022-12-18T04:11:19;48.67;;;33.47;;
10637;SDS011;47007;49.252;8.904;2022-12-18T04:12:02;43.30;;;30.63;;
10637;SDS011;47007;49.252;8.904;2022-12-18T04:12:44;43.60;;;31.40;;
10637;SDS011;47007;49.252;8.904;2022-12-18T04:13:28;45.47;;;31.67;;
10637;SDS011;47007;49.252;8.904;2022-12-18T04:14:15;44.73;;;30.30;;
10637;SDS011;47007;49.252;8.904;2022-12-18T04:15:01;45.07;;;31.80;;
10637;SDS011;47007;49.252;8.904;2022-12-18T04:15:43;48.17;;;32.50;;
10637;SDS011;47007;49.252;8.904;2022-12-18T04:16:28;48.13;;;32.70;;
10637;SDS011;47007;49.252;8.904;2022-12-18T04:17:14;42.03;;;29.17;;
10637;SDS011;47007;49.252;8.904;2022-12-18T04:17:56;44.50;;;31.07;;
10637;SDS011;47007;49.252;8.904;2022-12-18T04:18:40;45.40;;;30.87;;
10637;SDS011;47007;49.252;8.904;2022-12-18T04:19:22;44.70;;;30.57;;
10637;SDS011;47007;49.252;8.904;2022-12-18T04:20:06;40.43;;;29.17;;
10637;SDS011;47007;49.252;8.904;2022-12-18T04:20:49;41.57;;;29.27;;
10637;SDS011;47007;49.252;8.904;2022-12-18T04:21:31;37.67;;;26.90;;
10637;SDS011;47007;49.252;8.904;2022-12-18T04:22:13;41.53;;;28.80;;
10637;SDS011;47007;49.252;8.904;2022-12-18T04:22:59;40.60;;;26.73;;
10637;SDS011;47007;49.252;8.904;2022-12-18T04:23:41;42.47;;;28.60;;
10637;SDS011;47007;49.252;8.904;2022-12-18T04:24:23;43.70;;;30.63;;
10637;SDS011;47007;49.252;8.904;2022-12-18T04:25:16;45.50;;;31.03;;
10637;SDS011;47007;49.252;8.904;2022-12-18T04:26:13;44.97;;;29.87;;
10637;SDS011;47007;49.252;8.904;2022-12-18T04:27:06;44.43;;;29.57;;
10637;SDS011;47007;49.252;8.904;2022-12-18T04:27:54;39.90;;;28.10;;
10637;SDS011;47007;49.252;8.904;2022-12-18T04:28:36;40.53;;;28.40;;
10637;SDS011;47007;49.252;8.904;2022-12-18T04:29:18;43.33;;;29.70;;
10637;SDS011;47007;49.252;8.904;2022-12-18T04:30:00;44.07;;;29.97;;
10637;SDS011;47007;49.252;8.904;2022-12-18T04:30:44;43.60;;;29.17;;
10637;SDS011;47007;49.252;8.904;2022-12-18T04:31:25;42.97;;;31.17;;
10637;SDS011;47007;49.252;8.904;2022-12-18T04:32:08;40.57;;;29.10;;
10637;SDS011;47007;49.252;8.904;2022-12-18T04:32:50;46.63;;;32.07;;
10637;SDS011;47007;49.252;8.904;2022-12-18T04:33:34;46.60;;;30.50;;
10637;SDS011;47007;49.252;8.904;2022-12-18T04:34:16;51.07;;;32.93;;
10637;SDS011;47007;49.252;8.904;2022-12-18T04:35:03;43.10;;;30.90;;
10637;SDS011;47007;49.252;8.904;2022-12-18T04:35:48;46.97;;;31.70;;
10637;SDS011;47007;49.252;8.904;2022-12-18T04:36:31;47.63;;;32.50;;
10637;SDS011;47007;49.252;8.904;2022-12-18T04:37:13;48.07;;;32.80;;
10637;SDS011;47007;49.252;8.904;2022-12-18T04:37:54;44.00;;;31.33;;
10637;SDS011;47007;49.252;8.904;2022-12-18T04:38:36;48.47;;;32.23;;
10637;SDS011;47007;49.252;8.904;2022-12-18T04:39:22;51.50;;;34.40;;
10637;SDS011;47007;49.252;8.904;2022-12-18T04:40:09;51.17;;;33.67;;
10637;SDS011;47007;49.252;8.904;2022-12-18T04:40:55;45.17;;;32.57;;
10637;SDS011;47007;49.252;8.904;2022-12-18T04:41:40;43.60;;;30.63;;
10637;SDS011;47007;49.252;8.904;2022-12-18T04:42:23;48.10;;;32.90;;
10637;SDS011;47007;49.252;8.904;2022-12-18T04:43:05;50.10;;;34.17;;
10637;SDS011;47007;49.252;8.904;2022-12-18T04:43:46;49.47;;;34.40;;
10637;SDS011;47007;49.252;8.904;2022-12-18T04:44:28;46.47;;;32.43;;
10637;SDS011;47007;49.252;8.904;2022-12-18T04:45:10;47.60;;;33.13;;
10637;SDS011;47007;49.252;8.904;2022-12-18T04:45:51;43.00;;;30.70;;
10637;SDS011;47007;49.252;8.904;2022-12-18T04:46:33;46.27;;;32.60;;
10637;SDS011;47007;49.252;8.904;2022-12-18T04:47:15;47.97;;;32.90;;
10637;SDS011;47007;49.252;8.904;2022-12-18T04:47:57;47.60;;;32.67;;
10637;SDS011;47007;49.252;8.904;2022-12-18T04:48:39;48.07;;;31.47;;
10637;SDS011;47007;49.252;8.904;2022-12-18T04:49:21;46.47;;;31.60;;
10637;SDS011;47007;49.252;8.904;2022-12-18T04:50:03;40.77;;;28.20;;
10637;SDS011;47007;49.252;8.904;2022-12-18T04:50:46;44.37;;;31.50;;
10637;SDS011;47007;49.252;8.904;2022-12-18T04:51:28;45.57;;;32.23;;